Time;durP1;ratioP1;P1;durP2;ratioP2;P2;SDS_P1;SDS_P2;PMS_P1;PMS_P2;Temp;Humidity;BMP_temperature;BMP_pressure;BME280_temperature;BME280_humidity;BME280_pressure;Samples;Min_cycle;Max_cycle;Signal;HPM_P1;HPM_P2
2024/01/12 00:00:09;;;;;;;;;;;;;;;-2.05;100.00;100500.88;6324221;28;19935;-75
2024/01/12 00:03:10;;;;;;;;;;;;;;;-2.16;100.00;100498.34;6340242;27;19970;-75
2024/01/12 00:06:11;;;;;;;;;;;;;;;-2.06;100.00;100501.72;6332394;28;20336;-74
2024/01/12 00:09:11;;;;;;;;;;;;;;;-2.05;100.00;100503.44;6356494;27;20336;-75
2024/01/12 00:12:12;;;;;;;;;;;;;;;-2.00;100.00;100504.25;6320546;28;19931;-75
2024/01/12 00:15:15;;;;;;;;;;;;;;;-2.08;100.00;100508.53;6323400;28;19924;-74
2024/01/12 00:18:16;;;;;;;;;;;;;;;-1.97;100.00;100518.78;6321793;28;19924;-75
2024/01/12 00:21:17;;;;;;;;;;;;;;;-1.87;100.00;100530.69;6320579;28;19963;-75
2024/01/12 00:24:18;;;;;;;;;;;;;;;-1.85;100.00;100523.84;6329195;28;19928;-75
2024/01/12 00:27:19;;;;;;;;;;;;;;;-1.82;100.00;100521.28;6329056;28;19928;-75
2024/01/12 00:30:20;;;;;;;;;;;;;;;-1.71;100.00;100503.31;6328281;28;19923;-75
2024/01/12 00:33:21;;;;;;;;;;;;;;;-1.68;100.00;100519.53;6329856;28;19928;-75
2024/01/12 00:36:22;;;;;;;;;;;;;;;-1.71;100.00;100519.56;6330094;28;19924;-75
2024/01/12 00:39:23;;;;;;;;;;;;;;;-1.74;100.00;100519.53;6333806;28;20293;-75
2024/01/12 00:42:24;;;;;;;;;;;;;;;-1.75;100.00;100516.97;6341182;28;19979;-75
2024/01/12 00:45:25;;;;;;;;;;;;;;;-1.94;100.00;100523.88;6331298;28;19924;-75
2024/01/12 00:48:25;;;;;;;;;;;;;;;-1.90;100.00;100528.13;6335362;28;20017;-75
2024/01/12 00:51:26;;;;;;;;;;;;;;;-1.92;100.00;100520.44;6321913;28;19923;-75
2024/01/12 00:54:27;;;;;;;;;;;;;;;-1.80;100.00;100519.56;6323382;28;20301;-75
2024/01/12 00:57:28;;;;;;;;;;;;;;;-1.79;100.00;100522.97;6346317;28;20409;-75
2024/01/12 01:00:31;;;;;;;;;;;;;;;-1.97;100.00;100529.84;6346612;28;19927;-75
2024/01/12 01:03:32;;;;;;;;;;;;;;;-1.96;100.00;100525.56;6325066;28;19924;-75
2024/01/12 01:06:33;;;;;;;;;;;;;;;-2.03;100.00;100533.25;6321151;28;19935;-75
2024/01/12 01:09:33;;;;;;;;;;;;;;;-1.85;100.00;100529.81;6320428;28;19924;-75
2024/01/12 01:12:34;;;;;;;;;;;;;;;-1.97;100.00;100534.97;6323228;28;20373;-75
2024/01/12 01:15:35;;;;;;;;;;;;;;;-1.74;100.00;100536.59;6332940;28;19932;-75
2024/01/12 01:18:36;;;;;;;;;;;;;;;-1.75;100.00;100545.13;6331307;28;19977;-75
2024/01/12 01:21:37;;;;;;;;;;;;;;;-1.68;100.00;100551.94;6346039;28;19969;-75
2024/01/12 01:24:37;;;;;;;;;;;;;;;-1.75;100.00;100543.44;6345758;28;19924;-75
2024/01/12 01:27:38;;;;;;;;;;;;;;;-1.76;100.00;100535.75;6344720;28;20324;-75
2024/01/12 01:30:39;;;;;;;;;;;;;;;-1.87;100.00;100534.09;6334284;28;20424;-75
2024/01/12 01:33:40;;;;;;;;;;;;;;;-1.89;100.00;100532.41;6338638;28;19927;-75
2024/01/12 01:36:41;;;;;;;;;;;;;;;-1.77;100.00;100532.34;6330077;28;20391;-76
2024/01/12 01:39:41;;;;;;;;;;;;;;;-1.79;100.00;100526.41;6325414;28;19924;-76
2024/01/12 01:42:45;;;;;;;;;;;;;;;-1.74;100.00;100524.66;6325299;28;19924;-76
2024/01/12 01:45:49;;;;;;;;;;;;;;;-1.69;100.00;100520.41;6331474;28;19923;-76
2024/01/12 01:48:50;;;;;;;;;;;;;;;-1.69;100.00;100524.63;6349104;28;19923;-76
2024/01/12 01:51:51;;;;;;;;;;;;;;;-1.77;100.00;100539.16;6349271;28;19936;-76
2024/01/12 01:54:53;;;;;;;;;;;;;;;-1.76;100.00;100538.31;6340474;28;19975;-76
2024/01/12 01:57:55;;;;;;;;;;;;;;;-2.08;100.00;100545.22;6348923;28;20293;-76
2024/01/12 02:00:59;;;;;;;;;;;;;;;-1.88;100.00;100531.53;6335099;28;20374;-76
2024/01/12 02:03:59;;;;;;;;;;;;;;;-1.86;100.00;100545.16;6323583;28;19928;-76
2024/01/12 02:07:01;;;;;;;;;;;;;;;-1.79;100.00;100539.19;6322008;28;19931;-75
2024/01/12 02:10:01;;;;;;;;;;;;;;;-1.60;100.00;100541.69;6322224;28;20015;-75
2024/01/12 02:13:02;;;;;;;;;;;;;;;-1.68;100.00;100545.13;6321734;28;19981;-75
2024/01/12 02:16:03;;;;;;;;;;;;;;;-1.82;100.00;100544.28;6325443;28;19980;-75
2024/01/12 02:19:04;;;;;;;;;;;;;;;-1.80;100.00;100542.59;6322079;28;19924;-76
2024/01/12 02:22:05;;;;;;;;;;;;;;;-1.64;100.00;100546.81;6317056;28;20023;-76
2024/01/12 02:25:07;;;;;;;;;;;;;;;-1.52;100.00;100550.19;6319887;28;19924;-75
2024/01/12 02:28:10;;;;;;;;;;;;;;;-1.43;100.00;100538.19;6318669;28;19985;-76
2024/01/12 02:31:10;;;;;;;;;;;;;;;-1.38;100.00;100539.88;6319093;28;19924;-76
2024/01/12 02:34:12;;;;;;;;;;;;;;;-1.49;100.00;100537.38;6319314;28;19923;-76
2024/01/12 02:37:16;;;;;;;;;;;;;;;-1.56;100.00;100541.66;6319792;27;20350;-75
2024/01/12 02:40:19;;;;;;;;;;;;;;;-1.51;100.00;100547.59;6319276;28;20013;-75
2024/01/12 02:43:20;;;;;;;;;;;;;;;-1.65;100.00;100547.69;6321222;28;19924;-75
2024/01/12 02:46:24;;;;;;;;;;;;;;;-2.11;100.00;100546.91;6320158;28;19943;-76
2024/01/12 02:49:25;;;;;;;;;;;;;;;-1.92;100.00;100535.78;6320212;28;19928;-76
2024/01/12 02:52:25;;;;;;;;;;;;;;;-2.03;100.00;100534.97;6320880;28;19932;-75
2024/01/12 02:55:26;;;;;;;;;;;;;;;-1.86;100.00;100542.59;6321834;28;19936;-76
2024/01/12 02:58:27;;;;;;;;;;;;;;;-1.91;100.00;100540.06;6322006;28;20251;-76
2024/01/12 03:01:28;;;;;;;;;;;;;;;-1.89;100.00;100533.22;6317373;28;19924;-76
2024/01/12 03:04:28;;;;;;;;;;;;;;;-1.80;100.00;100536.63;6319183;28;19957;-75
2024/01/12 03:07:29;;;;;;;;;;;;;;;-1.74;100.00;100537.44;6317118;28;19980;-75
2024/01/12 03:10:30;;;;;;;;;;;;;;;-2.00;100.00;100532.38;6319897;28;20285;-76
2024/01/12 03:13:33;;;;;;;;;;;;;;;-2.00;100.00;100532.38;6320876;28;19924;-75
2024/01/12 03:16:33;;;;;;;;;;;;;;;-2.00;100.00;100532.38;6317648;28;20413;-75
2024/01/12 03:19:34;;;;;;;;;;;;;;;-1.84;100.00;100538.34;6325939;28;19924;-75
2024/01/12 03:22:35;;;;;;;;;;;;;;;-1.76;100.00;100544.28;6316147;28;20015;-76
2024/01/12 03:25:36;;;;;;;;;;;;;;;-1.79;100.00;100544.31;6329549;28;19927;-75
2024/01/12 03:28:37;;;;;;;;;;;;;;;-1.82;100.00;100549.41;6320065;28;19942;-75
2024/01/12 03:31:37;;;;;;;;;;;;;;;-2.05;100.00;100541.78;6317824;28;19976;-76
2024/01/12 03:34:38;;;;;;;;;;;;;;;-1.86;100.00;100546.00;6320594;28;19924;-76
2024/01/12 03:37:39;;;;;;;;;;;;;;;-1.62;100.00;100546.81;6317930;28;20016;-76
2024/01/12 03:40:40;;;;;;;;;;;;;;;-1.71;100.00;100546.81;6316489;28;19927;-76
2024/01/12 03:43:41;;;;;;;;;;;;;;;-1.94;100.00;100540.06;6319431;28;20320;-76
2024/01/12 03:46:41;;;;;;;;;;;;;;;-1.92;100.00;100548.56;6322586;28;19931;-76
2024/01/12 03:49:43;;;;;;;;;;;;;;;-2.20;100.00;100552.03;6318310;28;20090;-76
2024/01/12 03:52:43;;;;;;;;;;;;;;;-2.16;100.00;100554.59;6324932;28;19930;-76
2024/01/12 03:55:44;;;;;;;;;;;;;;;-2.12;100.00;100551.19;6318629;28;19928;-76
2024/01/12 03:58:45;;;;;;;;;;;;;;;-1.83;100.00;100552.84;6320876;28;20445;-76
2024/01/12 04:01:46;;;;;;;;;;;;;;;-2.30;100.00;100551.19;6317448;28;19924;-76
2024/01/12 04:04:47;;;;;;;;;;;;;;;-2.09;100.00;100552.88;6331025;27;19931;-76
2024/01/12 04:07:48;;;;;;;;;;;;;;;-1.95;100.00;100547.75;6321483;28;20309;-76
2024/01/12 04:10:49;;;;;;;;;;;;;;;-2.29;100.00;100553.72;6321523;28;20389;-76
2024/01/12 04:13:50;;;;;;;;;;;;;;;-2.00;100.00;100557.13;6321575;28;19928;-75
2024/01/12 04:16:50;;;;;;;;;;;;;;;-2.11;100.00;100562.25;6319511;28;20350;-70
2024/01/12 04:19:51;;;;;;;;;;;;;;;-1.87;100.00;100569.91;6320499;28;19924;-70
2024/01/12 04:22:51;;;;;;;;;;;;;;;-1.85;100.00;100562.22;6321057;28;20297;-70
2024/01/12 04:25:52;;;;;;;;;;;;;;;-1.72;100.00;100563.03;6321162;28;20135;-70
2024/01/12 04:28:53;;;;;;;;;;;;;;;-1.78;100.00;100565.63;6319944;28;19924;-70
2024/01/12 04:31:54;;;;;;;;;;;;;;;-2.13;100.00;100569.91;6341755;28;19930;-70
2024/01/12 04:34:54;;;;;;;;;;;;;;;-2.27;100.00;100571.63;6331385;28;20325;-71
2024/01/12 04:37:55;;;;;;;;;;;;;;;-1.98;100.00;100563.94;6319953;28;19934;-70
2024/01/12 04:40:56;;;;;;;;;;;;;;;-1.91;100.00;100573.31;6317695;28;19924;-70
2024/01/12 04:43:57;;;;;;;;;;;;;;;-1.80;100.00;100564.78;6343735;28;20396;-70
2024/01/12 04:46:57;;;;;;;;;;;;;;;-2.22;100.00;100569.94;6343004;28;19923;-70
2024/01/12 04:49:58;;;;;;;;;;;;;;;-2.40;100.00;100564.84;6345344;28;19924;-70
2024/01/12 04:52:59;;;;;;;;;;;;;;;-2.24;100.00;100572.50;6340921;28;19927;-70
2024/01/12 04:55:59;;;;;;;;;;;;;;;-2.08;100.00;100582.69;6329850;28;20041;-70
2024/01/12 04:59:00;;;;;;;;;;;;;;;-2.07;100.00;100574.19;6319522;28;19924;-70
2024/01/12 05:02:01;;;;;;;;;;;;;;;-2.13;100.00;100581.88;6332700;28;20266;-70
2024/01/12 05:05:04;;;;;;;;;;;;;;;-2.01;100.00;100581.00;6321856;28;20253;-70
2024/01/12 05:08:05;;;;;;;;;;;;;;;-2.21;100.00;100581.00;6321519;28;19924;-70
2024/01/12 05:11:06;;;;;;;;;;;;;;;-2.07;100.00;100581.84;6328903;28;19930;-76
2024/01/12 05:14:06;;;;;;;;;;;;;;;-1.99;100.00;100589.53;6350183;28;19924;-76
2024/01/12 05:17:07;;;;;;;;;;;;;;;-2.23;100.00;100598.91;6351462;28;19971;-75
2024/01/12 05:20:08;;;;;;;;;;;;;;;-2.10;100.00;100594.63;6349911;28;19927;-75
2024/01/12 05:23:09;;;;;;;;;;;;;;;-2.23;100.00;100602.31;6341493;28;20385;-75
2024/01/12 05:26:12;;;;;;;;;;;;;;;-2.41;100.00;100598.91;6334408;27;20498;-75
2024/01/12 05:29:14;;;;;;;;;;;;;;;-2.54;100.00;100601.44;6333676;27;19971;-75
2024/01/12 05:32:15;;;;;;;;;;;;;;;-2.63;100.00;100604.00;6334440;27;20309;-76
2024/01/12 05:35:16;;;;;;;;;;;;;;;-2.74;100.00;100603.09;6334835;27;19931;-75
2024/01/12 05:38:17;;;;;;;;;;;;;;;-2.57;100.00;100621.88;6335239;27;19935;-75
2024/01/12 05:41:18;;;;;;;;;;;;;;;-2.73;100.00;100615.03;6338518;27;20084;-75
2024/01/12 05:44:18;;;;;;;;;;;;;;;-2.69;100.00;100626.97;6343235;27;19935;-75
2024/01/12 05:47:19;;;;;;;;;;;;;;;-2.70;100.00;100618.47;6342408;28;19984;-75
2024/01/12 05:50:20;;;;;;;;;;;;;;;-2.46;100.00;100632.97;6346756;27;20031;-75
2024/01/12 05:53:25;;;;;;;;;;;;;;;-2.92;100.00;100634.56;6324739;28;19928;-75
2024/01/12 05:56:26;;;;;;;;;;;;;;;-2.70;100.00;100638.03;6324540;28;20406;-76
2024/01/12 05:59:27;;;;;;;;;;;;;;;-2.62;100.00;100641.44;6324622;28;19924;-75
2024/01/12 06:02:28;;;;;;;;;;;;;;;-2.67;100.00;100645.72;6324808;28;19931;-71
2024/01/12 06:05:28;;;;;;;;;;;;;;;-2.62;100.00;100644.00;6357148;27;19928;-71
2024/01/12 06:08:29;;;;;;;;;;;;;;;-2.79;100.00;100656.75;6323557;28;19988;-70
2024/01/12 06:11:30;;;;;;;;;;;;;;;-2.81;100.00;100660.13;6324377;28;19935;-70
2024/01/12 06:14:31;;;;;;;;;;;;;;;-3.11;100.00;100654.94;6323358;28;19924;-70
2024/01/12 06:17:31;;;;;;;;;;;;;;;-2.65;100.00;100652.53;6323160;28;19930;-71
2024/01/12 06:20:32;;;;;;;;;;;;;;;-2.78;100.00;100653.34;6323872;28;19924;-70
2024/01/12 06:23:33;;;;;;;;;;;;;;;-2.58;100.00;100666.16;6323119;28;20382;-70
2024/01/12 06:26:34;;;;;;;;;;;;;;;-2.85;100.00;100652.44;6323979;28;19970;-70
2024/01/12 06:29:36;;;;;;;;;;;;;;;-2.98;100.00;100660.09;6324216;28;20334;-70
2024/01/12 06:32:38;;;;;;;;;;;;;;;-2.87;100.00;100671.19;6323779;28;20351;-70
2024/01/12 06:35:39;;;;;;;;;;;;;;;-2.75;100.00;100667.81;6323994;28;19928;-71
2024/01/12 06:38:40;;;;;;;;;;;;;;;-2.73;100.00;100661.88;6322660;28;20015;-69
2024/01/12 06:41:42;;;;;;;;;;;;;;;-2.88;100.00;100666.94;6322585;28;20422;-69
2024/01/12 06:44:43;;;;;;;;;;;;;;;-2.83;100.00;100675.44;6323525;28;20027;-70
2024/01/12 06:47:43;;;;;;;;;;;;;;;-2.57;100.00;100675.53;6322341;28;19924;-69
2024/01/12 06:50:44;;;;;;;;;;;;;;;-2.31;100.00;100667.06;6323746;28;19924;-70
2024/01/12 06:53:44;;;;;;;;;;;;;;;-2.47;100.00;100676.41;6323200;28;19931;-70
2024/01/12 06:56:48;;;;;;;;;;;;;;;-2.55;100.00;100686.63;6323475;28;20386;-71
2024/01/12 06:59:49;;;;;;;;;;;;;;;-2.56;100.00;100690.00;6323378;28;19930;-70
2024/01/12 07:02:52;;;;;;;;;;;;;;;-2.90;100.00;100687.34;6323074;28;20289;-70
2024/01/12 07:05:55;;;;;;;;;;;;;;;-2.90;100.00;100696.72;6321735;28;19931;-70
2024/01/12 07:08:56;;;;;;;;;;;;;;;-2.66;100.00;100706.16;6322134;28;19957;-70
2024/01/12 07:11:57;;;;;;;;;;;;;;;-2.90;100.00;100715.44;6321687;28;19998;-70
2024/01/12 07:14:58;;;;;;;;;;;;;;;-2.82;100.00;100720.59;6322887;28;20382;-70
2024/01/12 07:17:59;;;;;;;;;;;;;;;-2.63;100.00;100721.50;6355636;27;19924;-70
2024/01/12 07:21:03;;;;;;;;;;;;;;;-2.77;100.00;100724.00;6321265;28;20043;-70
2024/01/12 07:24:06;;;;;;;;;;;;;;;-3.00;100.00;100718.81;6322663;28;19931;-69
2024/01/12 07:27:06;;;;;;;;;;;;;;;-2.78;100.00;100732.53;6322556;28;20302;-69
2024/01/12 07:30:07;;;;;;;;;;;;;;;-3.30;100.00;100724.56;6321513;28;19974;-70
2024/01/12 07:33:08;;;;;;;;;;;;;;;-3.03;100.00;100744.31;6322916;28;19962;-70
2024/01/12 07:36:09;;;;;;;;;;;;;;;-2.93;100.00;100740.09;6322484;28;19924;-69
2024/01/12 07:39:10;;;;;;;;;;;;;;;-2.85;100.00;100738.44;6322311;28;19977;-70
2024/01/12 07:42:11;;;;;;;;;;;;;;;-3.07;100.00;100743.44;6322213;28;19924;-70
2024/01/12 07:45:12;;;;;;;;;;;;;;;-3.14;100.00;100746.78;6341290;28;20381;-69
2024/01/12 07:48:13;;;;;;;;;;;;;;;-2.89;100.00;100758.00;6347288;27;19927;-70
2024/01/12 07:51:15;;;;;;;;;;;;;;;-2.70;100.00;100750.44;6346370;28;19923;-70
2024/01/12 07:54:16;;;;;;;;;;;;;;;-2.73;100.00;100745.31;6347515;28;19978;-71
2024/01/12 07:57:17;;;;;;;;;;;;;;;-2.46;100.00;100744.56;6345921;28;19924;-71
2024/01/12 08:00:18;;;;;;;;;;;;;;;-2.35;100.00;100742.88;6346696;28;19923;-71
2024/01/12 08:03:19;;;;;;;;;;;;;;;-2.16;100.00;100730.16;6326316;28;19928;-70
2024/01/12 08:06:20;;;;;;;;;;;;;;;-2.24;100.00;100732.72;6321822;28;19931;-70
2024/01/12 08:09:21;;;;;;;;;;;;;;;-2.17;100.00;100733.56;6320619;28;19928;-70
2024/01/12 08:12:21;;;;;;;;;;;;;;;-1.91;100.00;100734.47;6361005;27;19924;-70
2024/01/12 08:15:22;;;;;;;;;;;;;;;-1.93;100.00;100741.28;6345648;28;19923;-70
2024/01/12 08:18:23;;;;;;;;;;;;;;;-2.05;100.00;100746.38;6346797;28;19976;-70
2024/01/12 08:21:23;;;;;;;;;;;;;;;-1.94;100.00;100747.22;6346378;28;19962;-70
2024/01/12 08:24:24;;;;;;;;;;;;;;;-1.50;100.00;100748.97;6345424;28;19931;-70
2024/01/12 08:27:25;;;;;;;;;;;;;;;-1.81;100.00;100758.34;6344976;28;19924;-70
2024/01/12 08:30:26;;;;;;;;;;;;;;;-1.63;100.00;100758.38;6345470;28;19930;-70
2024/01/12 08:33:26;;;;;;;;;;;;;;;-1.64;100.00;100766.03;6346345;28;19931;-70
2024/01/12 08:36:27;;;;;;;;;;;;;;;-1.63;100.00;100770.28;6346628;28;20440;-70
2024/01/12 08:39:29;;;;;;;;;;;;;;;-1.62;100.00;100770.28;6346430;28;19977;-69
2024/01/12 08:42:29;;;;;;;;;;;;;;;-1.46;100.00;100757.50;6346349;28;20408;-70
2024/01/12 08:45:30;;;;;;;;;;;;;;;-1.49;100.00;100760.06;6344893;28;19932;-70
2024/01/12 08:48:31;;;;;;;;;;;;;;;-1.96;100.00;100771.94;6344715;28;19928;-71
2024/01/12 08:51:32;;;;;;;;;;;;;;;-1.75;100.00;100778.84;6345042;28;19924;-71
2024/01/12 08:54:33;;;;;;;;;;;;;;;-1.38;100.00;100780.53;6346126;28;19924;-71
2024/01/12 08:57:35;;;;;;;;;;;;;;;-1.12;100.00;100781.34;6346090;28;20025;-75
2024/01/12 09:00:36;;;;;;;;;;;;;;;-0.94;100.00;100782.19;6344856;28;20011;-75
2024/01/12 09:03:37;;;;;;;;;;;;;;;-0.77;100.00;100782.16;6345157;28;20289;-76
2024/01/12 09:06:38;;;;;;;;;;;;;;;-0.96;100.00;100791.59;6344765;28;19946;-75
2024/01/12 09:09:38;;;;;;;;;;;;;;;-1.04;100.00;100791.59;6346134;28;20282;-75
2024/01/12 09:12:39;;;;;;;;;;;;;;;-1.12;100.00;100796.72;6346036;28;19960;-75
2024/01/12 09:15:40;;;;;;;;;;;;;;;-1.20;100.00;100788.19;6344964;28;19928;-75
2024/01/12 09:18:44;;;;;;;;;;;;;;;-1.09;100.00;100793.31;6344783;28;19928;-75
2024/01/12 09:21:45;;;;;;;;;;;;;;;-0.91;100.00;100789.88;6345544;28;19924;-75
2024/01/12 09:24:45;;;;;;;;;;;;;;;-0.91;100.00;100798.41;6344619;28;19974;-75
2024/01/12 09:27:46;;;;;;;;;;;;;;;-0.71;100.00;100805.19;6345744;28;19952;-75
2024/01/12 09:30:47;;;;;;;;;;;;;;;-0.46;100.00;100804.25;6345109;28;19976;-76
2024/01/12 09:33:51;;;;;;;;;;;;;;;-0.33;100.00;100805.06;6346048;28;20006;-75
2024/01/12 09:36:52;;;;;;;;;;;;;;;-0.22;100.00;100803.31;6345737;28;19974;-75
2024/01/12 09:39:52;;;;;;;;;;;;;;;-0.45;100.00;100802.56;6344331;28;19924;-75
2024/01/12 09:42:54;;;;;;;;;;;;;;;-0.27;100.00;100796.47;6344547;28;19924;-70
2024/01/12 09:45:59;;;;;;;;;;;;;;;-0.24;100.00;100799.88;6344781;28;19923;-70
2024/01/12 09:49:00;;;;;;;;;;;;;;;-0.59;100.00;100797.47;6345206;28;20552;-70
2024/01/12 09:52:03;;;;;;;;;;;;;;;-0.38;100.00;100799.09;6345564;28;20030;-70
2024/01/12 09:55:05;;;;;;;;;;;;;;;-0.30;100.00;100796.50;6345172;28;19970;-70
2024/01/12 09:58:07;;;;;;;;;;;;;;;-0.41;100.00;100799.13;6345364;28;19985;-70
2024/01/12 10:01:08;;;;;;;;;;;;;;;-0.87;100.00;100799.25;6348652;28;19924;-70
2024/01/12 10:04:09;;;;;;;;;;;;;;;-1.19;100.00;100796.72;6383021;27;19923;-70
2024/01/12 10:07:10;;;;;;;;;;;;;;;-0.80;100.00;100790.72;6349600;28;20313;-70
2024/01/12 10:10:13;;;;;;;;;;;;;;;-0.63;100.00;100788.94;6349538;28;19941;-70
2024/01/12 10:13:14;;;;;;;;;;;;;;;-0.34;100.00;100797.38;6348326;28;20286;-70
2024/01/12 10:16:18;;;;;;;;;;;;;;;-0.22;100.00;100793.03;6349696;28;19923;-70
2024/01/12 10:19:19;;;;;;;;;;;;;;;0.37;100.00;100796.13;6348262;28;20419;-70
2024/01/12 10:22:20;;;;;;;;;;;;;;;0.71;100.00;100790.69;6382375;27;19971;-71
2024/01/12 10:25:20;;;;;;;;;;;;;;;0.80;100.00;100789.75;6349285;28;19928;-70
2024/01/12 10:28:21;;;;;;;;;;;;;;;1.13;100.00;100786.03;6348012;28;19931;-70
2024/01/12 10:31:22;;;;;;;;;;;;;;;1.42;97.32;100787.41;6348063;28;19969;-71
2024/01/12 10:34:24;;;;;;;;;;;;;;;1.52;94.80;100786.44;6349485;28;20023;-71
2024/01/12 10:37:26;;;;;;;;;;;;;;;1.59;92.86;100774.38;6349444;28;19978;-70
2024/01/12 10:40:26;;;;;;;;;;;;;;;1.28;91.05;100771.31;6347896;28;19924;-70
2024/01/12 10:43:28;;;;;;;;;;;;;;;0.99;90.62;100782.75;6349020;28;19924;-70
2024/01/12 10:46:38;;;;;;;;;;;;;;;1.22;89.63;100777.38;6347596;28;20406;-70
2024/01/12 10:49:49;;;;;;;;;;;;;;;1.66;87.10;100762.25;6349158;28;19928;-70
2024/01/12 10:53:10;;;;;;;;;;;;;;;1.83;81.96;100756.88;6347739;28;19984;-71
2024/01/12 10:56:11;;;;;;;;;;;;;;;1.89;81.23;100755.06;6348504;28;20350;-70
2024/01/12 10:59:12;;;;;;;;;;;;;;;2.01;78.76;100751.47;6348676;28;19924;-76
2024/01/12 11:02:13;;;;;;;;;;;;;;;2.05;77.34;100742.00;6347349;28;20567;-76
2024/01/12 11:05:16;;;;;;;;;;;;;;;2.14;74.72;100753.03;6348382;28;19924;-76
2024/01/12 11:08:19;;;;;;;;;;;;;;;2.17;70.66;100752.94;6347428;28;19977;-70
2024/01/12 11:11:22;;;;;;;;;;;;;;;1.95;65.79;100747.25;6346857;28;19923;-69
2024/01/12 11:14:23;;;;;;;;;;;;;;;1.94;63.76;100757.59;6348166;27;19924;-70
2024/01/12 11:17:28;;;;;;;;;;;;;;;2.00;63.43;100744.66;6348118;28;19924;-70
2024/01/12 11:20:30;;;;;;;;;;;;;;;2.25;62.27;100739.97;6346618;28;19924;-70
2024/01/12 11:23:38;;;;;;;;;;;;;;;2.58;61.59;100732.56;6348220;28;19934;-70
2024/01/12 11:26:41;;;;;;;;;;;;;;;2.36;60.03;100734.63;6346545;28;20285;-70
2024/01/12 11:29:43;;;;;;;;;;;;;;;2.86;61.09;100750.09;6347895;28;19935;-70
2024/01/12 11:32:45;;;;;;;;;;;;;;;2.85;58.82;100751.00;6347697;28;19949;-75
2024/01/12 11:35:47;;;;;;;;;;;;;;;3.02;58.45;100744.63;6346656;28;19932;-75
2024/01/12 11:38:52;;;;;;;;;;;;;;;2.79;57.49;100741.63;6347663;28;20059;-76
2024/01/12 11:41:55;;;;;;;;;;;;;;;2.82;57.62;100731.25;6346679;28;20366;-75
2024/01/12 11:44:56;;;;;;;;;;;;;;;3.06;56.89;100735.13;6346067;28;19989;-75
2024/01/12 11:48:01;;;;;;;;;;;;;;;2.99;57.54;100731.81;6347646;28;20283;-76
2024/01/12 11:51:01;;;;;;;;;;;;;;;3.06;56.61;100735.13;6347492;28;20014;-76
2024/01/12 11:54:03;;;;;;;;;;;;;;;3.13;56.41;100734.13;6347286;28;19924;-76
2024/01/12 11:57:04;;;;;;;;;;;;;;;2.83;56.43;100732.97;6346074;28;20023;-76
2024/01/12 12:00:06;;;;;;;;;;;;;;;3.16;56.93;100726.31;6346918;28;20071;-76
2024/01/12 12:03:10;;;;;;;;;;;;;;;3.17;57.06;100716.84;6347290;28;19931;-75
2024/01/12 12:06:11;;;;;;;;;;;;;;;3.09;56.22;100711.00;6379965;27;19963;-76
2024/01/12 12:09:12;;;;;;;;;;;;;;;3.34;55.68;100708.78;6346907;27;19924;-75
2024/01/12 12:12:13;;;;;;;;;;;;;;;3.38;55.52;100711.28;6345766;28;20417;-76
2024/01/12 12:15:14;;;;;;;;;;;;;;;3.05;56.50;100709.34;6346744;28;19923;-76
2024/01/12 12:18:15;;;;;;;;;;;;;;;3.32;55.82;100705.41;6379654;27;20309;-75
2024/01/12 12:21:15;;;;;;;;;;;;;;;3.22;54.36;100689.25;6345882;28;20324;-76
2024/01/12 12:24:16;;;;;;;;;;;;;;;3.01;54.82;100677.66;6346769;28;19923;-75
2024/01/12 12:27:17;;;;;;;;;;;;;;;3.06;55.53;100678.38;6345159;28;19930;-76
2024/01/12 12:30:18;;;;;;;;;;;;;;;2.69;54.93;100675.69;6346854;28;19996;-71
2024/01/12 12:33:22;;;;;;;;;;;;;;;2.71;54.59;100686.81;6346317;28;19924;-70
2024/01/12 12:36:23;;;;;;;;;;;;;;;2.74;54.37;100686.75;6345601;28;19928;-70
2024/01/12 12:39:24;;;;;;;;;;;;;;;3.10;54.68;100685.19;6346474;28;20407;-70
2024/01/12 12:42:25;;;;;;;;;;;;;;;2.87;53.24;100685.66;6345371;28;20044;-71
2024/01/12 12:45:26;;;;;;;;;;;;;;;3.16;53.37;100671.31;6345029;28;19930;-70
2024/01/12 12:48:27;;;;;;;;;;;;;;;3.09;54.28;100674.91;6345403;28;19971;-70
2024/01/12 12:51:28;;;;;;;;;;;;;;;3.03;52.94;100669.00;6344940;28;19924;-69
2024/01/12 12:54:30;;;;;;;;;;;;;;;2.87;53.29;100669.34;6346480;28;19930;-71
2024/01/12 12:57:31;;;;;;;;;;;;;;;2.78;53.24;100662.59;6345035;28;19923;-70
2024/01/12 13:00:32;;;;;;;;;;;;;;;2.67;53.56;100669.72;6344853;28;20389;-70
2024/01/12 13:03:32;;;;;;;;;;;;;;;2.48;53.22;100672.63;6346046;28;19924;-70
2024/01/12 13:06:33;;;;;;;;;;;;;;;2.80;52.86;100669.44;6345836;28;19930;-70
2024/01/12 13:09:34;;;;;;;;;;;;;;;2.96;53.03;100667.41;6379383;27;19931;-70
2024/01/12 13:12:35;;;;;;;;;;;;;;;2.79;53.30;100678.03;6345998;28;19931;-70
2024/01/12 13:15:36;;;;;;;;;;;;;;;3.07;52.11;100674.94;6344665;28;19923;-70
2024/01/12 13:18:37;;;;;;;;;;;;;;;3.06;51.40;100670.66;6345844;28;20390;-70
2024/01/12 13:21:38;;;;;;;;;;;;;;;3.04;51.98;100672.41;6345973;28;20390;-71
2024/01/12 13:24:39;;;;;;;;;;;;;;;2.82;52.12;100675.44;6344630;28;19931;-70
2024/01/12 13:27:40;;;;;;;;;;;;;;;2.69;53.11;100686.00;6344591;28;20018;-71
2024/01/12 13:30:41;;;;;;;;;;;;;;;2.66;53.22;100686.03;6344825;28;19980;-71
2024/01/12 13:33:42;;;;;;;;;;;;;;;2.86;52.92;100680.50;6381273;27;19923;-70
2024/01/12 13:36:47;;;;;;;;;;;;;;;3.06;53.71;100687.88;6383919;27;19923;-70
2024/01/12 13:39:48;;;;;;;;;;;;;;;2.70;53.75;100687.66;6350462;28;20373;-70
2024/01/12 13:42:49;;;;;;;;;;;;;;;2.61;52.88;100692.16;6349653;28;19924;-69
2024/01/12 13:45:50;;;;;;;;;;;;;;;2.51;53.40;100694.88;6348966;28;19974;-70
2024/01/12 13:48:52;;;;;;;;;;;;;;;2.51;53.15;100693.19;6350480;28;19931;-70
2024/01/12 13:51:53;;;;;;;;;;;;;;;2.49;54.11;100691.50;6350395;28;19932;-70
2024/01/12 13:54:53;;;;;;;;;;;;;;;2.20;53.52;100688.56;6383385;27;19927;-70
2024/01/12 13:57:54;;;;;;;;;;;;;;;2.12;53.94;100690.41;6350033;28;19949;-75
2024/01/12 14:00:55;;;;;;;;;;;;;;;2.20;54.75;100695.41;6350009;28;20366;-75
2024/01/12 14:03:55;;;;;;;;;;;;;;;2.08;54.54;100696.47;6348788;28;19931;-75
2024/01/12 14:06:56;;;;;;;;;;;;;;;2.13;55.12;100699.81;6348192;28;19970;-75
2024/01/12 14:09:57;;;;;;;;;;;;;;;1.98;55.26;100695.75;6348644;28;20290;-75
2024/01/12 14:12:58;;;;;;;;;;;;;;;1.72;55.48;100703.00;6349732;27;20286;-75
2024/01/12 14:15:59;;;;;;;;;;;;;;;1.69;55.64;100703.91;6348639;28;20365;-75
2024/01/12 14:19:00;;;;;;;;;;;;;;;1.79;55.09;100712.31;6348302;28;19923;-75
2024/01/12 14:22:00;;;;;;;;;;;;;;;1.67;56.61;100699.63;6347955;28;20420;-75
2024/01/12 14:25:01;;;;;;;;;;;;;;;1.37;57.31;100706.91;6349585;27;20390;-75
2024/01/12 14:28:02;;;;;;;;;;;;;;;1.47;57.90;100702.50;6347841;28;19947;-76
2024/01/12 14:31:04;;;;;;;;;;;;;;;1.49;56.92;100699.03;6349358;27;20300;-76
2024/01/12 14:34:04;;;;;;;;;;;;;;;1.32;58.15;100699.25;6347971;28;19924;-76
2024/01/12 14:37:05;;;;;;;;;;;;;;;1.26;58.35;100701.91;6347737;28;19931;-75
2024/01/12 14:40:06;;;;;;;;;;;;;;;1.24;58.02;100702.81;6349100;28;20438;-76
2024/01/12 14:43:07;;;;;;;;;;;;;;;1.23;58.42;100703.66;6349046;28;20267;-75
2024/01/12 14:46:09;;;;;;;;;;;;;;;1.18;58.11;100703.72;6347994;28;19924;-75
2024/01/12 14:49:10;;;;;;;;;;;;;;;1.09;57.82;100696.97;6348844;28;19927;-76
2024/01/12 14:52:13;;;;;;;;;;;;;;;1.05;58.84;100707.28;6349215;28;19951;-75
2024/01/12 14:55:15;;;;;;;;;;;;;;;0.92;59.52;100706.56;6347313;28;19924;-76
2024/01/12 14:58:16;;;;;;;;;;;;;;;0.91;58.91;100695.44;6348680;28;19938;-75
2024/01/12 15:01:18;;;;;;;;;;;;;;;0.93;59.46;100705.72;6333622;27;19924;-75
2024/01/12 15:04:19;;;;;;;;;;;;;;;0.82;59.12;100710.94;6337339;27;19968;-75
2024/01/12 15:07:20;;;;;;;;;;;;;;;0.81;59.98;100719.53;6345635;27;20327;-76
2024/01/12 15:10:23;;;;;;;;;;;;;;;0.76;59.95;100723.84;6334839;27;20135;-75
2024/01/12 15:13:25;;;;;;;;;;;;;;;0.71;59.80;100736.75;6324793;28;20295;-75
2024/01/12 15:16:28;;;;;;;;;;;;;;;0.69;60.72;100733.34;6341904;28;19924;-76
2024/01/12 15:19:29;;;;;;;;;;;;;;;0.65;60.87;100734.25;6339050;28;20374;-76
2024/01/12 15:22:29;;;;;;;;;;;;;;;0.61;61.86;100732.56;6337235;28;19931;-76
2024/01/12 15:25:30;;;;;;;;;;;;;;;0.59;61.87;100724.03;6333716;27;20341;-75